Terminal Aerodrome Forecast
Issued by NWS Topeka, KS

Home | Current Version | Previous Version | Graphics & Text | Print | Product List | Glossary On
Versions: 1 2 3 4 5 6 7 8 9 10 11 12 13 14 15
000
FTUS43 KTOP 231100
TAFTOP
TAF
KTOP 231128Z 2312/2412 11002KT P6SM SCT070
     FM231400 12010KT P6SM BKN060
     FM240800 11008KT P6SM VCTS BKN025 OVC040CB=

USA.gov is the U.S. government's official web portal to all federal, state and local government web resources and services.